Time;durP1;ratioP1;P1;durP2;ratioP2;P2;SDS_P1;SDS_P2;PMS_P1;PMS_P2;Temp;Humidity;BMP_temperature;BMP_pressure;BME280_temperature;BME280_humidity;BME280_pressure;Samples;Min_cycle;Max_cycle;Signal;HPM_P1;HPM_P2
2024/03/08 00:00:17;;;;;;;51.10;20.42;;;;;;;3.03;100.00;101899.63;6088901;19;20016;-76
2024/03/08 00:02:23;;;;;;;38.72;15.65;;;;;;;3.04;100.00;101898.75;5988277;19;2004932;-76
2024/03/08 00:04:29;;;;;;;45.40;18.35;;;;;;;3.05;100.00;101892.72;6089849;19;20014;-76
2024/03/08 00:06:34;;;;;;;36.63;16.05;;;;;;;3.03;100.00;101896.16;6089543;19;20748;-76
2024/03/08 00:08:37;;;;;;;39.33;18.92;;;;;;;2.97;100.00;101886.56;6092235;19;20410;-75
2024/03/08 00:10:42;;;;;;;;;;;;;;;2.99;100.00;101887.47;6089799;19;20039;-73
2024/03/08 00:12:47;;;;;;;38.15;15.40;;;;;;;2.99;100.00;101886.59;6089939;19;19922;-77
2024/03/08 00:14:52;;;;;;;41.85;16.55;;;;;;;2.98;100.00;101885.75;6088906;19;20438;-74
2024/03/08 00:17:00;;;;;;;36.63;16.05;;;;;;;2.94;100.00;101881.38;6090353;19;20675;-76
2024/03/08 00:19:07;;;;;;;47.35;15.88;;;;;;;2.95;100.00;101879.63;6093058;19;19999;-75
2024/03/08 00:21:10;;;;;;;49.05;18.80;;;;;;;2.92;100.00;101877.00;6093450;19;20018;-75
2024/03/08 00:23:16;;;;;;;50.13;18.70;;;;;;;2.91;100.00;101878.75;6091128;19;20015;-76
2024/03/08 00:25:22;;;;;;;43.05;18.50;;;;;;;2.92;100.00;101880.47;6090181;19;20038;-76
2024/03/08 00:27:30;;;;;;;43.80;16.85;;;;;;;2.89;100.00;101872.66;6091210;19;20038;-74
2024/03/08 00:29:35;;;;;;;43.40;17.10;;;;;;;2.86;100.00;101872.66;6089869;19;20759;-76
2024/03/08 00:31:40;;;;;;;40.85;17.92;;;;;;;2.84;100.00;101871.75;6087666;19;20006;-74
2024/03/08 00:33:45;;;;;;;40.95;15.50;;;;;;;2.88;100.00;101865.75;6086308;19;20010;-74
2024/03/08 00:35:51;;;;;;;40.65;18.48;;;;;;;2.88;100.00;101870.94;6090269;19;20006;-75
2024/03/08 00:37:59;;;;;;;51.75;22.23;;;;;;;2.84;100.00;101864.88;6089154;19;20034;-75
2024/03/08 00:40:02;;;;;;;54.25;18.48;;;;;;;2.82;100.00;101857.94;6089254;19;21017;-75
2024/03/08 00:42:08;;;;;;;50.47;21.00;;;;;;;2.80;100.00;101857.91;6089828;19;19999;-75
2024/03/08 00:44:10;;;;;;;46.35;19.50;;;;;;;2.82;100.00;101855.34;6087570;19;20022;-75
2024/03/08 00:46:15;;;;;;;47.17;17.92;;;;;;;2.82;100.00;101860.53;6090541;19;20015;-76
2024/03/08 00:48:20;;;;;;;50.58;17.42;;;;;;;2.76;100.00;101860.44;6087513;19;20046;-75
2024/03/08 00:50:29;;;;;;;52.60;19.40;;;;;;;2.76;100.00;101856.13;6088221;19;20010;-75
2024/03/08 00:52:34;;;;;;;50.50;20.65;;;;;;;2.77;100.00;101857.88;6080446;19;20530;-75
2024/03/08 00:54:40;;;;;;;52.13;20.50;;;;;;;2.78;100.00;101851.81;6086159;19;20015;-78
2024/03/08 00:56:46;;;;;;;58.72;19.42;;;;;;;2.72;100.00;101851.78;6089867;19;20035;-78
2024/03/08 00:58:51;;;;;;;55.53;21.38;;;;;;;2.72;100.00;101850.91;6086389;19;20738;-75
2024/03/08 01:00:57;;;;;;;39.25;17.65;;;;;;;2.74;100.00;101846.59;6083714;19;20038;-75
2024/03/08 01:03:03;;;;;;;53.65;18.17;;;;;;;2.72;100.00;101849.19;6088449;19;20087;-79
2024/03/08 01:05:09;;;;;;;45.40;18.63;;;;;;;2.65;100.00;101844.78;6087855;19;20455;-75
2024/03/08 01:07:16;;;;;;;59.63;19.75;;;;;;;2.63;100.00;101844.81;6089425;19;20537;-77
2024/03/08 01:09:21;;;;;;;39.05;17.95;;;;;;;2.66;100.00;101837.88;6087409;19;20011;-77
2024/03/08 01:11:27;;;;;;;56.28;20.80;;;;;;;2.65;100.00;101834.41;6090347;19;20018;-78
2024/03/08 01:13:30;;;;;;;53.05;18.98;;;;;;;2.66;100.00;101830.09;6089592;19;20006;-74
2024/03/08 01:15:37;;;;;;;47.80;16.75;;;;;;;2.62;100.00;101832.66;6088158;19;20007;-77
2024/03/08 01:17:43;;;;;;;46.92;17.00;;;;;;;2.60;100.00;101824.00;6088952;19;20006;-74
2024/03/08 01:19:46;;;;;;;54.97;19.45;;;;;;;2.55;100.00;101820.50;6088776;19;20038;-78
2024/03/08 01:21:51;;;;;;;49.03;20.42;;;;;;;2.52;100.00;101812.69;6090519;19;20030;-78
2024/03/08 01:23:59;;;;;;;50.20;19.95;;;;;;;2.53;100.00;101817.03;6092463;19;19998;-78
2024/03/08 01:26:06;;;;;;;43.45;17.40;;;;;;;2.57;100.00;101811.00;6092185;19;20006;-78
2024/03/08 01:28:12;;;;;;;41.80;18.60;;;;;;;2.55;100.00;101807.50;6091391;19;20015;-78
2024/03/08 01:30:18;;;;;;;58.20;23.23;;;;;;;2.50;100.00;101805.75;6089310;19;20042;-76
2024/03/08 01:32:23;;;;;;;51.53;21.10;;;;;;;2.45;100.00;101805.72;6087644;19;20090;-74
2024/03/08 01:34:28;;;;;;;51.00;19.92;;;;;;;2.49;100.00;101796.22;6086539;19;20249;-74
2024/03/08 01:36:33;;;;;;;50.45;19.00;;;;;;;2.44;100.00;101803.97;6090843;19;20010;-75
2024/03/08 01:38:38;;;;;;;52.17;19.13;;;;;;;2.45;100.00;101797.94;6085286;19;20095;-76
2024/03/08 01:40:46;;;;;;;53.55;20.58;;;;;;;2.43;100.00;101797.06;6086796;19;20422;-75
2024/03/08 01:42:51;;;;;;;54.08;18.95;;;;;;;2.44;100.00;101791.00;6087640;19;22697;-75
2024/03/08 01:44:56;;;;;;;58.80;22.70;;;;;;;2.41;100.00;101794.44;6088027;19;20021;-75
2024/03/08 01:47:01;;;;;;;50.30;20.80;;;;;;;2.41;100.00;101788.38;6086725;19;20018;-75
2024/03/08 01:49:07;;;;;;;50.97;20.65;;;;;;;2.34;100.00;101790.06;6086292;19;20356;-76
2024/03/08 01:51:15;;;;;;;70.47;23.27;;;;;;;2.35;100.00;101786.63;6086906;19;20581;-75
2024/03/08 01:53:18;;;;;;;51.25;19.05;;;;;;;2.31;100.00;101782.25;6084024;19;20006;-74
2024/03/08 01:55:23;;;;;;;56.92;22.15;;;;;;;2.31;100.00;101784.84;6086577;19;20016;-75
2024/03/08 01:57:33;;;;;;;50.78;20.13;;;;;;;2.30;100.00;101784.84;6085981;19;20103;-75
2024/03/08 01:59:41;;;;;;;54.17;18.35;;;;;;;2.28;100.00;101779.63;6084013;19;20003;-74
2024/03/08 02:01:48;;;;;;;48.08;16.85;;;;;;;2.29;100.00;101785.69;6086979;19;20081;-74
2024/03/08 02:03:53;;;;;;;51.78;18.90;;;;;;;2.23;100.00;101785.63;6086479;19;20038;-74
2024/03/08 02:06:01;;;;;;;46.88;21.00;;;;;;;2.20;100.00;101771.78;6086420;19;20517;-75
2024/03/08 02:08:07;;;;;;;57.80;21.17;;;;;;;2.17;100.00;101779.53;6086276;19;20010;-75
2024/03/08 02:10:13;;;;;;;54.88;18.00;;;;;;;2.20;100.00;101771.78;6087582;19;20015;-75
2024/03/08 02:12:21;;;;;;;51.58;18.00;;;;;;;2.15;100.00;101763.09;6087633;19;20006;-77
2024/03/08 02:14:31;;;;;;;53.50;21.45;;;;;;;2.16;100.00;101761.38;6086571;19;20003;-73
2024/03/08 02:16:36;;;;;;;47.55;20.58;;;;;;;2.16;100.00;101758.78;6086295;19;20518;-74
2024/03/08 02:18:41;;;;;;;55.03;22.25;;;;;;;2.13;100.00;101753.56;6083468;19;20010;-74
2024/03/08 02:20:50;;;;;;;58.85;21.63;;;;;;;2.11;100.00;101758.75;6088160;19;20073;-77
2024/03/08 02:22:55;;;;;;;45.08;20.45;;;;;;;2.11;100.00;101752.69;6087661;19;20006;-77
2024/03/08 02:25:01;;;;;;;58.60;19.08;;;;;;;2.06;100.00;101744.88;6088531;19;20030;-74
2024/03/08 02:27:07;;;;;;;60.08;23.52;;;;;;;2.10;100.00;101749.22;6088192;19;20006;-74
2024/03/08 02:29:13;;;;;;;45.60;19.92;;;;;;;2.08;100.00;101740.56;6087104;19;20518;-77
2024/03/08 02:31:21;;;;;;;52.95;21.73;;;;;;;2.06;100.00;101737.09;6088160;19;20116;-77
2024/03/08 02:33:29;;;;;;;41.20;17.38;;;;;;;2.04;100.00;101740.53;6087239;19;20010;-80
2024/03/08 02:35:35;;;;;;;50.88;20.65;;;;;;;1.95;100.00;101737.00;6088693;19;20014;-77
2024/03/08 02:37:43;;;;;;;57.78;24.02;;;;;;;1.94;100.00;101735.25;6087747;19;20329;-77
2024/03/08 02:39:50;;;;;;;50.70;20.20;;;;;;;1.95;100.00;101731.81;6087898;19;20010;-77
2024/03/08 02:41:57;;;;;;;62.13;20.23;;;;;;;1.91;100.00;101731.75;6086527;19;20014;-78
2024/03/08 02:44:03;;;;;;;46.83;20.58;;;;;;;1.91;100.00;101731.75;6087690;19;20098;-74
2024/03/08 02:46:09;;;;;;;58.15;22.50;;;;;;;1.88;100.00;101723.97;6084826;19;20384;-77
2024/03/08 02:48:13;;;;;;;59.30;19.90;;;;;;;1.89;100.00;101718.78;6088295;19;20787;-79
2024/03/08 02:50:19;;;;;;;54.47;19.10;;;;;;;1.84;100.00;101723.03;6087748;19;20006;-74
2024/03/08 02:52:24;;;;;;;54.95;20.17;;;;;;;1.80;100.00;101715.25;6084504;19;20082;-77
2024/03/08 02:54:32;;;;;;;57.33;20.30;;;;;;;1.81;100.00;101716.97;6086674;19;20877;-77
2024/03/08 02:56:37;;;;;;;50.75;21.15;;;;;;;1.75;100.00;101712.59;6086370;19;20010;-77
2024/03/08 02:58:42;;;;;;;51.63;21.95;;;;;;;1.75;100.00;101715.19;6087865;19;20031;-73
2024/03/08 03:00:47;;;;;;;43.05;19.85;;;;;;;1.77;100.00;101712.63;6084453;19;20010;-77
2024/03/08 03:02:53;;;;;;;48.00;19.35;;;;;;;1.71;100.00;101706.53;6085434;19;20090;-74
2024/03/08 03:05:04;;;;;;;57.00;21.27;;;;;;;1.74;100.00;101703.97;6082798;19;20500;-75
2024/03/08 03:07:09;;;;;;;65.75;18.75;;;;;;;1.69;100.00;101705.66;6084708;19;20019;-79
2024/03/08 03:09:16;;;;;;;43.78;19.70;;;;;;;1.68;100.00;101701.28;6088056;19;20034;-79
2024/03/08 03:11:22;;;;;;;57.53;20.50;;;;;;;1.67;100.00;101694.38;6085169;19;20038;-76
2024/03/08 03:13:29;;;;;;;53.90;22.02;;;;;;;1.63;100.00;101691.75;6085937;19;20521;-76
2024/03/08 03:15:34;;;;;;;49.17;21.63;;;;;;;1.62;100.00;101685.69;6092863;19;20493;-80
2024/03/08 03:17:39;;;;;;;48.55;20.10;;;;;;;1.61;100.00;101683.13;6090155;19;20095;-74
2024/03/08 03:19:42;;;;;;;43.35;19.05;;;;;;;1.56;100.00;101685.66;6087681;19;20014;-74
2024/03/08 03:21:47;;;;;;;;;;;;;;;1.59;100.00;101684.81;6089715;19;20007;-74
2024/03/08 03:23:53;;;;;;;45.33;18.30;;;;;;;1.58;100.00;101680.47;6090630;19;20268;-74
2024/03/08 03:25:57;;;;;;;50.53;20.38;;;;;;;1.56;100.00;101679.59;6093024;19;20122;-77
2024/03/08 03:28:07;;;;;;;39.35;18.40;;;;;;;1.53;100.00;101670.94;6092885;19;20002;-77
2024/03/08 03:30:25;;;;;;;55.50;21.17;;;;;;;1.54;100.00;101670.06;6088118;19;20074;-78
2024/03/08 03:32:33;;;;;;;44.65;19.10;;;;;;;1.48;100.00;101672.63;6092043;19;20357;-78
2024/03/08 03:34:38;;;;;;;53.17;20.35;;;;;;;1.51;100.00;101674.38;6091431;19;20337;-80
2024/03/08 03:36:47;;;;;;;37.70;18.90;;;;;;;1.50;100.00;101667.44;6092236;19;20098;-77
2024/03/08 03:38:49;;;;;;;57.92;21.20;;;;;;;1.44;100.00;101670.84;6092341;19;20011;-80
2024/03/08 03:40:57;;;;;;;46.88;17.67;;;;;;;1.46;100.00;101668.28;6091948;19;20007;-77
2024/03/08 03:43:02;;;;;;;49.65;18.55;;;;;;;1.42;100.00;101656.13;6084830;19;20023;-77
2024/03/08 03:45:14;;;;;;;59.47;19.52;;;;;;;1.45;100.00;101667.41;6091385;19;20014;-73
2024/03/08 03:47:22;;;;;;;46.35;17.83;;;;;;;1.41;100.00;101662.19;6089189;19;20076;-74
2024/03/08 03:49:27;;;;;;;46.67;16.67;;;;;;;1.40;100.00;101658.72;6089522;19;20015;-74
2024/03/08 03:51:31;;;;;;;52.70;19.95;;;;;;;1.38;100.00;101659.56;6090532;19;20002;-74
2024/03/08 03:53:41;;;;;;;44.85;19.25;;;;;;;1.39;100.00;101656.97;6087514;19;20018;-74
2024/03/08 03:55:44;;;;;;;50.10;19.85;;;;;;;1.40;100.00;101655.28;6088066;19;20011;-74
2024/03/08 03:57:50;;;;;;;40.58;17.75;;;;;;;1.36;100.00;101664.72;6089313;19;20015;-74
2024/03/08 03:59:58;;;;;;;43.47;19.67;;;;;;;1.34;100.00;101656.06;6087783;19;20019;-74
2024/03/08 04:02:07;;;;;;;43.25;19.55;;;;;;;1.35;100.00;101655.22;6087492;19;20021;-74
2024/03/08 04:04:12;;;;;;;48.55;20.65;;;;;;;1.34;100.00;101642.25;6089802;19;20082;-74
2024/03/08 04:06:17;;;;;;;47.42;16.85;;;;;;;1.30;100.00;101649.13;6089024;19;20025;-74
2024/03/08 04:08:23;;;;;;;44.15;20.05;;;;;;;1.25;100.00;101649.06;6091701;19;20354;-74
2024/03/08 04:10:29;;;;;;;51.95;19.40;;;;;;;1.24;100.00;101649.94;6089732;19;20014;-74
2024/03/08 04:12:34;;;;;;;48.63;19.17;;;;;;;1.26;100.00;101635.28;6091017;19;20440;-74
2024/03/08 04:14:39;;;;;;;44.40;17.75;;;;;;;1.24;100.00;101644.75;6088510;19;20014;-75
2024/03/08 04:16:42;;;;;;;46.40;18.90;;;;;;;1.24;100.00;101630.94;6086661;19;20495;-75
2024/03/08 04:18:50;;;;;;;67.88;23.20;;;;;;;1.21;100.00;101633.47;6089374;19;20486;-74
2024/03/08 04:20:59;;;;;;;30.38;16.38;;;;;;;1.17;100.00;101634.31;6090755;19;20035;-74
2024/03/08 04:23:05;;;;;;;32.88;15.55;;;;;;;1.18;100.00;101625.69;6086952;19;20730;-76
2024/03/08 04:25:11;;;;;;;40.22;18.80;;;;;;;1.18;100.00;101636.03;6087202;19;20010;-74
2024/03/08 04:27:14;;;;;;;62.42;21.00;;;;;;;1.12;100.00;101630.78;6090559;19;20029;-77
2024/03/08 04:29:19;;;;;;;36.83;16.48;;;;;;;1.11;100.00;101627.34;6091182;19;20053;-77
2024/03/08 04:31:26;;;;;;;45.00;21.10;;;;;;;1.12;100.00;101620.44;6093990;19;21687;-77
2024/03/08 04:33:31;;;;;;;45.42;18.00;;;;;;;1.14;100.00;101624.78;6090801;19;20038;-78
2024/03/08 04:35:39;;;;;;;38.35;15.45;;;;;;;1.06;100.00;101629.00;6091237;19;20018;-78
2024/03/08 04:37:45;;;;;;;37.25;17.58;;;;;;;1.11;100.00;101622.16;6091644;19;20105;-77
2024/03/08 04:39:47;;;;;;;43.17;17.65;;;;;;;1.08;100.00;101632.50;6091840;19;20042;-74
2024/03/08 04:41:54;;;;;;;38.70;17.45;;;;;;;1.06;100.00;101624.69;6087333;19;20015;-77
2024/03/08 04:44:01;;;;;;;38.63;16.55;;;;;;;1.06;100.00;101627.28;6091230;19;20007;-77
2024/03/08 04:46:06;;;;;;;40.03;18.33;;;;;;;1.08;100.00;101625.59;6090020;19;20010;-74
2024/03/08 04:48:11;;;;;;;40.92;17.83;;;;;;;1.08;100.00;101627.31;6088663;19;20006;-74
2024/03/08 04:50:16;;;;;;;48.78;15.90;;;;;;;1.02;100.00;101619.47;6087480;19;20362;-78
2024/03/08 04:52:24;;;;;;;35.50;16.88;;;;;;;1.01;100.00;101618.59;6087664;19;20754;-74
2024/03/08 04:54:32;;;;;;;35.80;15.77;;;;;;;1.03;100.00;101618.63;6087888;19;20006;-77
2024/03/08 04:56:37;;;;;;;47.60;15.82;;;;;;;1.01;100.00;101616.00;6085195;19;20018;-77
2024/03/08 04:58:43;;;;;;;36.88;17.65;;;;;;;1.01;100.00;101615.16;6089450;19;20467;-78
2024/03/08 05:00:48;;;;;;;53.85;22.55;;;;;;;0.90;100.00;101599.50;6089071;19;20015;-74
2024/03/08 05:02:58;;;;;;;35.92;18.40;;;;;;;0.97;100.00;101610.78;6087340;19;20086;-78
2024/03/08 05:05:06;;;;;;;50.25;21.15;;;;;;;0.96;100.00;101615.09;6088973;19;20124;-73
2024/03/08 05:07:10;;;;;;;47.55;19.80;;;;;;;0.96;100.00;101612.50;6085587;19;20621;-75
2024/03/08 05:09:19;;;;;;;47.03;19.08;;;;;;;0.93;100.00;101606.44;6088820;19;20027;-74
2024/03/08 05:11:26;;;;;;;45.42;19.92;;;;;;;0.97;100.00;101605.59;6088026;19;20014;-75
2024/03/08 05:13:31;;;;;;;48.63;17.50;;;;;;;0.94;100.00;101601.25;6086883;19;20027;-77
2024/03/08 05:15:36;;;;;;;33.45;15.77;;;;;;;0.95;100.00;101599.53;6087514;19;20487;-77
2024/03/08 05:17:42;;;;;;;46.47;21.88;;;;;;;0.94;100.00;101595.22;6087772;19;20773;-77
2024/03/08 05:19:48;;;;;;;36.28;17.17;;;;;;;0.88;100.00;101596.88;6084665;19;20010;-74
2024/03/08 05:21:53;;;;;;;38.95;19.23;;;;;;;0.87;100.00;101595.16;6084872;19;20007;-74
2024/03/08 05:24:00;;;;;;;48.65;18.25;;;;;;;0.84;100.00;101587.38;6087198;19;20010;-74
2024/03/08 05:26:08;;;;;;;38.20;16.17;;;;;;;0.87;100.00;101597.75;6088423;19;20023;-77
2024/03/08 05:28:13;;;;;;;49.75;20.20;;;;;;;0.88;100.00;101591.72;6088281;19;20009;-76
2024/03/08 05:30:21;;;;;;;40.92;18.92;;;;;;;0.84;100.00;101594.25;6090120;19;20035;-76
2024/03/08 05:32:24;;;;;;;36.28;16.08;;;;;;;0.80;100.00;101590.75;6086470;19;20727;-77
2024/03/08 05:34:31;;;;;;;45.22;15.82;;;;;;;0.84;100.00;101584.78;6087642;19;20087;-74
2024/03/08 05:36:36;;;;;;;42.60;17.98;;;;;;;0.81;100.00;101591.63;6084438;19;20120;-77
2024/03/08 05:38:42;;;;;;;38.17;16.80;;;;;;;0.82;100.00;101586.47;6088269;19;20014;-77
2024/03/08 05:40:44;;;;;;;44.20;20.30;;;;;;;0.82;100.00;101589.06;6088678;19;20050;-76
2024/03/08 05:42:52;;;;;;;42.55;17.17;;;;;;;0.76;100.00;101586.38;6089519;19;20012;-77
2024/03/08 05:44:58;;;;;;;37.83;17.58;;;;;;;0.74;100.00;101592.38;6088720;19;20558;-77
2024/03/08 05:47:04;;;;;;;34.50;15.63;;;;;;;0.73;100.00;101588.94;6091023;19;20015;-78
2024/03/08 05:49:09;;;;;;;36.85;16.20;;;;;;;0.72;100.00;101591.53;6088538;19;20010;-76
2024/03/08 05:51:15;;;;;;;40.08;17.25;;;;;;;0.70;100.00;101588.91;6090859;19;20020;-78
2024/03/08 05:53:20;;;;;;;36.90;18.38;;;;;;;0.68;100.00;101582.84;6085427;19;20046;-75
2024/03/08 05:55:26;;;;;;;38.25;16.85;;;;;;;0.71;100.00;101587.19;6085417;19;20007;-74
2024/03/08 05:57:31;;;;;;;33.28;17.60;;;;;;;0.71;100.00;101577.72;6087806;19;20016;-76
2024/03/08 05:59:41;;;;;;;35.63;18.80;;;;;;;0.70;100.00;101575.97;6089593;19;20010;-76
2024/03/08 06:01:46;;;;;;;37.03;16.98;;;;;;;0.71;100.00;101577.72;6089771;19;20018;-77
2024/03/08 06:03:53;;;;;;;44.55;20.75;;;;;;;0.66;100.00;101579.41;6088020;19;20288;-74
2024/03/08 06:05:56;;;;;;;35.58;16.38;;;;;;;0.69;100.00;101581.16;6088039;19;20030;-74
2024/03/08 06:08:01;;;;;;;33.22;14.30;;;;;;;0.67;100.00;101573.34;6086468;19;20014;-74
2024/03/08 06:10:09;;;;;;;53.13;19.65;;;;;;;0.70;100.00;101573.38;6085830;19;20740;-74
2024/03/08 06:12:18;;;;;;;30.58;15.60;;;;;;;0.65;100.00;101567.28;6087362;19;20006;-74
2024/03/08 06:14:24;;;;;;;40.38;17.77;;;;;;;0.69;100.00;101574.25;6085272;19;20257;-74
2024/03/08 06:16:35;;;;;;;34.72;17.58;;;;;;;0.68;100.00;101572.50;6085857;19;20685;-74
2024/03/08 06:18:41;;;;;;;43.60;18.15;;;;;;;0.69;100.00;101569.06;6084765;19;20007;-77
2024/03/08 06:20:48;;;;;;;39.38;17.67;;;;;;;0.68;100.00;101567.31;6089344;19;20046;-77
2024/03/08 06:22:53;;;;;;;44.10;18.50;;;;;;;0.64;100.00;101565.56;6089530;19;20010;-78
2024/03/08 06:24:55;;;;;;;35.38;17.58;;;;;;;0.65;100.00;101568.16;6090061;19;20019;-77
2024/03/08 06:27:00;;;;;;;32.17;16.15;;;;;;;0.69;100.00;101571.66;6088669;19;20019;-77
2024/03/08 06:29:07;;;;;;;43.83;20.42;;;;;;;0.67;100.00;101560.44;6088394;19;20008;-78
2024/03/08 06:31:12;;;;;;;41.50;20.50;;;;;;;0.65;100.00;101564.69;6088835;19;20007;-78
2024/03/08 06:33:20;;;;;;;38.47;20.23;;;;;;;0.71;100.00;101566.50;6086587;19;20085;-78
2024/03/08 06:35:25;;;;;;;30.38;16.92;;;;;;;0.73;100.00;101562.22;6081260;19;20121;-74
2024/03/08 06:37:28;;;;;;;46.85;20.52;;;;;;;0.69;100.00;101560.47;6089823;19;20014;-78
2024/03/08 06:39:34;;;;;;;41.88;18.48;;;;;;;0.68;100.00;101546.63;6085626;19;20081;-77
2024/03/08 06:41:39;;;;;;;48.92;18.17;;;;;;;0.71;100.00;101544.09;6087462;19;20014;-77
2024/03/08 06:43:46;;;;;;;38.42;16.92;;;;;;;0.74;100.00;101546.72;6090651;19;20009;-78
2024/03/08 06:45:52;;;;;;;39.63;18.98;;;;;;;0.75;100.00;101543.28;6088597;19;20035;-77
2024/03/08 06:47:56;;;;;;;41.95;19.52;;;;;;;0.78;100.00;101537.25;6087696;19;20010;-74
2024/03/08 06:50:04;;;;;;;41.50;20.35;;;;;;;0.82;100.00;101529.56;6083504;19;20034;-75
2024/03/08 06:52:09;;;;;;;31.77;15.10;;;;;;;0.83;100.00;101533.88;6083930;19;20285;-74
2024/03/08 06:54:14;;;;;;;40.90;18.52;;;;;;;0.85;100.00;101533.91;6084643;19;20006;-78
2024/03/08 06:56:18;;;;;;;43.10;18.80;;;;;;;0.88;100.00;101539.09;6086865;19;20032;-74
2024/03/08 06:58:24;;;;;;;39.92;18.13;;;;;;;0.90;100.00;101532.22;6083781;19;20025;-74
2024/03/08 07:00:30;;;;;;;38.20;18.05;;;;;;;0.96;100.00;101531.41;6089638;19;20018;-74
2024/03/08 07:02:35;;;;;;;41.65;19.20;;;;;;;1.00;100.00;101523.72;6088035;19;20038;-77
2024/03/08 07:04:40;;;;;;;38.88;19.67;;;;;;;1.01;100.00;101524.56;6087247;19;20002;-75
2024/03/08 07:06:50;;;;;;;44.58;18.02;;;;;;;1.04;100.00;101528.03;6085799;19;20043;-74
2024/03/08 07:08:55;;;;;;;38.63;17.98;;;;;;;1.06;100.00;101522.91;6087287;19;20512;-77
2024/03/08 07:11:01;;;;;;;32.63;15.73;;;;;;;1.07;100.00;101517.72;6081939;19;20015;-77
2024/03/08 07:13:07;;;;;;;33.60;17.33;;;;;;;1.13;100.00;101518.63;6087649;19;20011;-74
2024/03/08 07:15:14;;;;;;;34.60;14.98;;;;;;;1.19;100.00;101519.56;6086378;19;20474;-74
2024/03/08 07:17:20;;;;;;;37.30;18.77;;;;;;;1.22;100.00;101522.19;6080666;19;20015;-74
2024/03/08 07:19:27;;;;;;;49.83;19.55;;;;;;;1.28;100.00;101518.78;6076977;19;20554;-74
2024/03/08 07:21:36;;;;;;;42.20;16.45;;;;;;;1.29;100.00;101521.38;6078414;19;20011;-74
2024/03/08 07:23:54;;;;;;;43.55;19.63;;;;;;;1.34;100.00;101517.94;6082222;19;20743;-74
2024/03/08 07:26:00;;;;;;;41.88;17.55;;;;;;;1.35;100.00;101524.88;6079025;19;20013;-73
2024/03/08 07:28:06;;;;;;;35.42;16.52;;;;;;;1.39;100.00;101521.44;6082149;19;20349;-73
2024/03/08 07:30:51;;;;;;;45.30;19.48;;;;;;;1.42;100.00;101514.59;6083615;19;20006;-74
2024/03/08 07:32:40;;;;;;;39.97;18.38;;;;;;;1.49;100.00;101511.16;6080808;19;20035;-78
2024/03/08 07:34:45;;;;;;;26.20;15.10;;;;;;;1.53;100.00;101507.75;6085430;19;20019;-73
2024/03/08 07:36:50;;;;;;;28.83;13.45;;;;;;;1.57;100.00;101515.53;6083064;19;20343;-74
2024/03/08 07:38:58;;;;;;;33.38;16.80;;;;;;;1.62;100.00;101508.69;6084097;19;20006;-75
2024/03/08 07:41:03;;;;;;;41.15;17.98;;;;;;;1.69;100.00;101510.47;6080624;19;20011;-75
2024/03/08 07:43:10;;;;;;;34.50;17.17;;;;;;;1.72;100.00;101510.47;6082910;19;20463;-74
2024/03/08 07:45:15;;;;;;;40.65;18.15;;;;;;;1.75;100.00;101507.91;6080828;19;20104;-77
2024/03/08 07:47:21;;;;;;;37.45;17.20;;;;;;;1.79;100.00;101504.50;6085037;19;20011;-78
2024/03/08 07:49:29;;;;;;;36.85;17.55;;;;;;;1.84;100.00;101505.34;6078847;19;20722;-78
2024/03/08 07:51:37;;;;;;;41.53;19.17;;;;;;;1.85;100.00;101499.34;6084111;19;20034;-75
2024/03/08 07:53:43;;;;;;;33.95;14.90;;;;;;;1.90;100.00;101500.22;6078957;19;20444;-75
2024/03/08 07:55:51;;;;;;;38.22;19.23;;;;;;;1.94;100.00;101498.50;6083319;19;20476;-75
2024/03/08 07:57:54;;;;;;;35.10;15.75;;;;;;;1.98;100.00;101492.50;6082286;19;20520;-79
2024/03/08 08:00:00;;;;;;;29.40;15.90;;;;;;;2.05;100.00;101494.25;6085273;19;20610;-78
2024/03/08 08:02:08;;;;;;;30.92;16.75;;;;;;;2.16;100.00;101497.78;6090772;19;20022;-79
2024/03/08 08:04:17;;;;;;;40.58;16.92;;;;;;;2.28;100.00;101496.94;6092659;19;20028;-78
2024/03/08 08:06:23;;;;;;;35.70;19.15;;;;;;;2.34;100.00;101486.63;6092987;19;20010;-77
2024/03/08 08:08:26;;;;;;;30.02;13.93;;;;;;;2.43;100.00;101483.19;6091589;19;20014;-76
2024/03/08 08:10:32;;;;;;;41.05;19.10;;;;;;;2.57;100.00;101491.00;6092585;19;20081;-76
2024/03/08 08:12:41;;;;;;;38.33;17.40;;;;;;;2.66;100.00;101484.97;6089904;19;20389;-76
2024/03/08 08:14:46;;;;;;;39.90;17.15;;;;;;;2.76;100.00;101484.13;6087530;19;20693;-76
2024/03/08 08:16:52;;;;;;;40.85;18.00;;;;;;;2.84;100.00;101482.41;6088897;19;20018;-76
2024/03/08 08:18:57;;;;;;;38.15;16.30;;;;;;;2.96;100.00;101477.25;6086384;19;20010;-76
2024/03/08 08:21:03;;;;;;;32.22;14.80;;;;;;;3.13;100.00;101477.25;6085280;19;20014;-76
2024/03/08 08:23:10;;;;;;;38.25;18.27;;;;;;;3.16;100.00;101469.47;6087321;19;20005;-76
2024/03/08 08:25:16;;;;;;;43.20;14.48;;;;;;;3.23;100.00;101465.13;6086123;19;20428;-77
2024/03/08 08:27:22;;;;;;;39.75;16.63;;;;;;;3.36;100.00;101464.25;6089949;19;20002;-78
2024/03/08 08:29:30;;;;;;;34.13;15.63;;;;;;;3.45;100.00;101453.88;6089864;19;20007;-77
2024/03/08 08:31:36;;;;;;;39.13;16.35;;;;;;;3.47;100.00;101459.91;6085914;19;20021;-76
2024/03/08 08:33:41;;;;;;;31.67;15.32;;;;;;;3.63;100.00;101459.88;6090991;19;20037;-78
2024/03/08 08:35:47;;;;;;;32.80;16.33;;;;;;;3.66;100.00;101458.16;6089326;19;20006;-77
2024/03/08 08:37:50;;;;;;;38.78;18.90;;;;;;;3.76;100.00;101446.00;6093155;19;20006;-75
2024/03/08 08:39:54;;;;;;;42.58;20.92;;;;;;;3.89;100.00;101450.28;6089307;19;20014;-78
2024/03/08 08:42:00;;;;;;;42.97;18.33;;;;;;;3.96;100.00;101448.53;6090778;19;20142;-75
2024/03/08 08:44:09;;;;;;;37.33;15.32;;;;;;;4.15;100.00;101436.31;6088726;19;20042;-75
2024/03/08 08:46:23;;;;;;;32.28;15.95;;;;;;;4.09;100.00;101428.56;6088173;19;20010;-76
2024/03/08 08:48:30;;;;;;;40.65;15.00;;;;;;;4.19;100.00;101443.25;6088575;19;20003;-75
2024/03/08 08:50:36;;;;;;;35.67;17.00;;;;;;;4.18;100.00;101438.91;6091714;19;20010;-78
2024/03/08 08:52:43;;;;;;;37.83;17.77;;;;;;;4.41;100.00;101425.78;6087833;19;20023;-78
2024/03/08 08:54:49;;;;;;;38.60;17.17;;;;;;;4.69;100.00;101428.25;6090410;19;20010;-78
2024/03/08 08:56:56;;;;;;;37.25;17.02;;;;;;;4.63;100.00;101431.72;6089525;19;20066;-78
2024/03/08 08:58:59;;;;;;;31.10;16.98;;;;;;;4.61;100.00;101423.94;6084525;19;20014;-76
2024/03/08 09:01:07;;;;;;;42.90;17.20;;;;;;;4.79;100.00;101422.06;6087614;19;20021;-79
2024/03/08 09:03:17;;;;;;;42.78;18.20;;;;;;;4.89;100.00;101428.06;6087832;19;20034;-78
2024/03/08 09:05:24;;;;;;;43.95;17.42;;;;;;;4.76;100.00;101419.47;6088457;19;20042;-78
2024/03/08 09:07:30;;;;;;;38.85;18.50;;;;;;;4.84;100.00;101418.56;6089943;19;20499;-77
2024/03/08 09:09:36;;;;;;;37.67;18.23;;;;;;;4.99;100.00;101420.19;6087260;19;20011;-75
2024/03/08 09:11:41;;;;;;;35.67;16.23;;;;;;;5.00;100.00;101405.41;6075022;19;20105;-75
2024/03/08 09:13:49;;;;;;;36.67;20.63;;;;;;;5.22;100.00;101409.56;6085449;19;20030;-75
2024/03/08 09:15:56;;;;;;;42.67;17.30;;;;;;;5.19;100.00;101411.34;6088436;19;20007;-77
2024/03/08 09:18:02;;;;;;;39.83;18.35;;;;;;;5.32;100.00;101405.13;6088734;19;20026;-78
2024/03/08 09:20:14;;;;;;;37.67;17.98;;;;;;;5.32;100.00;101407.75;6089316;19;20011;-78
2024/03/08 09:22:20;;;;;;;44.20;18.35;;;;;;;5.46;100.00;101399.78;6084673;19;20016;-78
2024/03/08 09:24:28;;;;;;;33.10;17.10;;;;;;;5.67;100.00;101389.13;6076803;19;20042;-78
2024/03/08 09:26:36;;;;;;;33.72;18.85;;;;;;;5.84;100.00;101388.03;6080466;19;20593;-79
2024/03/08 09:28:45;;;;;;;38.17;16.65;;;;;;;5.68;100.00;101385.63;6082200;19;20018;-79
2024/03/08 09:30:50;;;;;;;41.58;18.13;;;;;;;5.89;100.00;101383.63;6087373;19;20010;-78
2024/03/08 09:33:04;;;;;;;;;;;;;;;6.09;100.00;101386.91;6090086;19;20454;-79